createdAt,value
2018-10-21T05:12:20.792Z,60.50
2018-10-21T05:14:48.743Z,68.50
2018-10-21T05:17:16.805Z,72.10
2018-10-21T05:19:44.911Z,62.33
2018-10-21T05:22:14.033Z,67.50
2018-10-21T05:24:41.962Z,65.30
2018-10-21T05:27:09.984Z,73.70
2018-10-21T05:29:39.076Z,74.23
2018-10-21T05:32:07.004Z,71.87
2018-10-21T05:34:35.107Z,73.23
2018-10-21T05:37:03.064Z,88.87
2018-10-21T05:39:30.996Z,80.17
2018-10-21T05:41:58.951Z,78.13
2018-10-21T05:44:26.924Z,74.63
2018-10-21T05:46:54.940Z,80.63
2018-10-21T05:49:22.780Z,71.20
2018-10-21T05:51:51.420Z,70.37
2018-10-21T05:54:19.860Z,69.13
2018-10-21T05:56:48.996Z,66.93
2018-10-21T05:59:17.544Z,69.70
2018-10-21T06:01:46.240Z,62.67
2018-10-21T06:04:15.275Z,56.57
2018-10-21T06:06:43.143Z,60.13
2018-10-21T06:09:12.296Z,59.27
2018-10-21T06:11:40.258Z,62.57
2018-10-21T06:14:08.197Z,56.70
2018-10-21T06:16:45.813Z,60.73
2018-10-21T06:19:17.054Z,54.07
2018-10-21T06:21:45.028Z,66.87
2018-10-21T06:24:13.030Z,66.63
2018-10-21T06:26:40.968Z,65.77
2018-10-21T06:29:08.900Z,63.20
2018-10-21T06:31:36.485Z,73.17
2018-10-21T06:34:04.817Z,71.17
2018-10-21T06:36:32.971Z,73.27
2018-10-21T06:39:00.940Z,65.70
2018-10-21T06:41:28.832Z,67.73
2018-10-21T06:43:56.844Z,65.23
2018-10-21T06:46:24.872Z,61.87
2018-10-21T06:48:53.794Z,60.30
2018-10-21T06:51:21.716Z,54.07
2018-10-21T06:53:49.701Z,51.17
2018-10-21T06:56:17.682Z,54.10
2018-10-21T06:58:45.524Z,56.07
2018-10-21T07:01:13.639Z,49.87
2018-10-21T07:03:41.598Z,51.00
2018-10-21T07:06:11.042Z,54.53
2018-10-21T07:08:38.952Z,53.23
2018-10-21T07:11:06.991Z,51.03
2018-10-21T07:13:35.301Z,54.93
2018-10-21T07:16:03.335Z,52.27
2018-10-21T07:18:31.342Z,51.10
2018-10-21T07:20:59.393Z,51.40
2018-10-21T07:23:27.445Z,47.90
2018-10-21T07:25:55.384Z,51.83
2018-10-21T07:28:23.379Z,50.33
2018-10-21T07:30:50.794Z,50.80
2018-10-21T07:33:18.739Z,43.77
2018-10-21T07:35:46.744Z,40.30
2018-10-21T07:38:14.680Z,65.37
2018-10-21T07:40:42.708Z,45.43
2018-10-21T07:43:10.676Z,45.10
2018-10-21T07:45:38.603Z,44.97
2018-10-21T07:48:06.612Z,48.63
2018-10-21T07:50:34.568Z,46.53
2018-10-21T07:53:02.710Z,38.50
2018-10-21T07:55:30.802Z,40.83
2018-10-21T07:57:58.698Z,37.03
2018-10-21T08:00:26.680Z,38.93
2018-10-21T08:02:54.822Z,38.77
2018-10-21T08:05:28.440Z,38.03
2018-10-21T08:08:02.161Z,42.83
2018-10-21T08:10:30.176Z,47.20
2018-10-21T08:12:58.140Z,39.10
2018-10-21T08:15:26.191Z,41.07
2018-10-21T08:17:54.207Z,43.07
2018-10-21T08:20:22.313Z,44.27
2018-10-21T08:22:50.283Z,40.63
2018-10-21T08:25:18.240Z,38.07
2018-10-21T08:27:46.217Z,41.17
2018-10-21T08:30:14.021Z,42.10
2018-10-21T08:32:42.050Z,36.00
2018-10-21T08:35:10.004Z,36.90
2018-10-21T08:37:37.959Z,39.67
2018-10-21T08:40:05.904Z,35.77
2018-10-21T08:42:34.020Z,37.87
2018-10-21T08:45:02.112Z,34.30
2018-10-21T08:47:30.095Z,37.87
2018-10-21T08:49:58.096Z,37.73
2018-10-21T08:52:26.541Z,35.50
2018-10-21T08:54:54.490Z,34.40
2018-10-21T08:57:22.441Z,34.83
2018-10-21T08:59:50.400Z,37.90
2018-10-21T09:02:18.340Z,33.60
2018-10-21T09:04:46.277Z,38.40
2018-10-21T09:07:14.291Z,32.57
2018-10-21T09:09:42.188Z,36.33
2018-10-21T09:12:10.120Z,42.60
2018-10-21T09:14:45.271Z,33.67
2018-10-21T09:17:13.268Z,35.70
2018-10-21T09:19:41.227Z,30.60
2018-10-21T09:22:09.256Z,28.63
2018-10-21T09:24:37.457Z,29.03
2018-10-21T09:27:05.729Z,30.30
2018-10-21T09:29:33.725Z,32.20
2018-10-21T09:32:01.190Z,27.17
2018-10-21T09:34:29.312Z,30.83
2018-10-21T09:36:57.336Z,31.20
2018-10-21T09:39:25.250Z,29.70
2018-10-21T09:41:53.277Z,32.30
2018-10-21T09:44:21.388Z,33.47
2018-10-21T09:46:49.418Z,29.53
2018-10-21T09:49:17.457Z,46.40
2018-10-21T09:51:45.355Z,36.80
2018-10-21T09:54:13.331Z,28.30
2018-10-21T09:56:41.270Z,29.03
2018-10-21T09:59:09.404Z,30.77
2018-10-21T10:01:43.031Z,25.77
2018-10-21T10:04:11.001Z,27.60
2018-10-21T10:06:38.878Z,25.10
2018-10-21T10:09:07.726Z,27.57
2018-10-21T10:11:35.695Z,26.03
2018-10-21T10:14:03.687Z,26.83
2018-10-21T10:16:31.625Z,25.50
2018-10-21T10:18:59.642Z,27.37
2018-10-21T10:21:27.671Z,25.97
2018-10-21T10:23:55.795Z,28.23
2018-10-21T10:26:23.791Z,27.00
2018-10-21T10:28:51.713Z,24.93
2018-10-21T10:31:19.451Z,22.40
2018-10-21T10:33:47.309Z,24.53
2018-10-21T10:36:15.340Z,22.87
2018-10-21T10:38:43.235Z,24.47
2018-10-21T10:41:11.247Z,24.67
2018-10-21T10:43:39.179Z,19.23
2018-10-21T10:46:07.216Z,21.77
2018-10-21T10:48:35.195Z,27.80
2018-10-21T10:51:03.347Z,24.40
2018-10-21T10:53:31.321Z,21.10
2018-10-21T10:55:59.293Z,18.87
2018-10-21T10:58:27.327Z,20.93
2018-10-21T11:00:55.275Z,17.93
2018-10-21T11:03:23.208Z,16.30
2018-10-21T11:05:51.223Z,15.47
2018-10-21T11:08:19.317Z,15.83
2018-10-21T11:10:47.250Z,15.77
2018-10-21T11:13:15.255Z,13.67
2018-10-21T11:15:43.234Z,15.63
2018-10-21T11:18:11.295Z,17.70
2018-10-21T11:20:39.818Z,15.87
2018-10-21T11:23:07.943Z,13.07
2018-10-21T11:25:35.897Z,15.00
2018-10-21T11:28:04.049Z,14.70
2018-10-21T11:30:33.561Z,13.83
2018-10-21T11:33:01.622Z,17.50
2018-10-21T11:35:29.639Z,18.37
2018-10-21T11:37:57.695Z,13.40
2018-10-21T11:40:25.635Z,12.27
2018-10-21T11:42:53.603Z,14.80
2018-10-21T11:45:21.540Z,12.10
2018-10-21T11:47:49.533Z,12.37
2018-10-21T11:50:17.449Z,11.67
2018-10-21T11:52:45.566Z,10.43
2018-10-21T11:55:13.574Z,15.83
2018-10-21T11:57:41.464Z,33.50
2018-10-21T12:00:09.971Z,15.63
2018-10-21T12:02:38.060Z,11.23
2018-10-21T12:05:06.339Z,17.57
2018-10-21T12:07:34.251Z,9.80
2018-10-21T12:10:02.236Z,7.67
2018-10-21T12:12:30.176Z,7.80
2018-10-21T12:14:58.095Z,10.20
2018-10-21T12:17:26.049Z,6.57
2018-10-21T12:19:54.302Z,10.40
2018-10-21T12:22:23.210Z,15.83
2018-10-21T12:24:51.639Z,8.93
2018-10-21T12:27:18.975Z,7.30
2018-10-21T12:29:46.875Z,10.03
2018-10-21T12:32:14.336Z,5.03
2018-10-21T12:34:42.261Z,6.23
2018-10-21T12:37:10.212Z,5.40
2018-10-21T12:39:38.223Z,6.57
2018-10-21T12:42:06.218Z,8.47
2018-10-21T12:44:34.188Z,6.43
2018-10-21T12:47:02.183Z,4.33
2018-10-21T12:49:30.032Z,3.90
2018-10-21T12:51:57.988Z,5.40
2018-10-21T12:54:25.936Z,6.10
2018-10-21T12:56:53.824Z,5.50
2018-10-21T12:59:21.739Z,5.77
2018-10-21T13:01:49.664Z,4.00
2018-10-21T13:04:17.709Z,3.93
2018-10-21T13:06:45.599Z,4.07
2018-10-21T13:09:13.580Z,4.30
2018-10-21T13:11:41.508Z,5.43
2018-10-21T13:14:09.516Z,5.30
2018-10-21T13:16:37.505Z,5.97
2018-10-21T13:19:05.576Z,4.63
2018-10-21T13:21:33.433Z,6.00
2018-10-21T13:24:01.417Z,5.20
2018-10-21T13:26:29.385Z,3.43
2018-10-21T13:28:57.360Z,5.37
2018-10-21T13:31:24.773Z,5.33
2018-10-21T13:33:52.763Z,2.63
2018-10-21T13:36:20.688Z,4.20
2018-10-21T13:38:48.632Z,4.00
2018-10-21T13:41:16.599Z,5.40
2018-10-21T13:43:44.500Z,4.77
2018-10-21T13:46:12.473Z,4.40
2018-10-21T13:48:40.368Z,3.23
2018-10-21T13:51:08.339Z,3.13
2018-10-21T13:53:36.367Z,2.53
2018-10-21T13:56:04.160Z,6.20
2018-10-21T13:58:32.156Z,2.43
2018-10-21T14:01:00.317Z,3.83
2018-10-21T14:03:27.688Z,24.80
2018-10-21T14:05:55.599Z,8.87
2018-10-21T14:08:23.592Z,2.67
2018-10-21T14:10:51.531Z,4.33
2018-10-21T14:13:19.516Z,3.07
2018-10-21T14:15:47.457Z,4.53
2018-10-21T14:18:15.393Z,3.27
2018-10-21T14:20:43.370Z,3.63
2018-10-21T14:23:11.320Z,5.60
2018-10-21T14:25:39.304Z,4.90
2018-10-21T14:28:07.324Z,5.70
2018-10-21T14:30:35.468Z,3.50
2018-10-21T14:33:04.358Z,6.10
2018-10-21T14:35:32.266Z,4.67
2018-10-21T14:38:00.402Z,4.93
2018-10-21T14:40:28.243Z,12.93
2018-10-21T14:42:56.212Z,3.10
2018-10-21T14:45:24.214Z,4.77
2018-10-21T14:47:52.052Z,2.67
2018-10-21T14:50:19.991Z,4.63
2018-10-21T14:52:47.997Z,4.33
2018-10-21T14:55:15.953Z,4.23
2018-10-21T14:57:43.835Z,7.30
2018-10-21T15:00:13.069Z,5.13
2018-10-21T15:02:41.328Z,2.53
2018-10-21T15:05:10.723Z,5.80
2018-10-21T15:07:39.108Z,12.83
2018-10-21T15:10:07.807Z,5.23
2018-10-21T15:12:35.851Z,2.77
2018-10-21T15:15:03.775Z,3.70
2018-10-21T15:17:31.675Z,5.20
2018-10-21T15:19:59.622Z,5.80
2018-10-21T15:22:27.517Z,6.50
2018-10-21T15:24:56.380Z,3.83
2018-10-21T15:27:24.440Z,3.43
2018-10-21T15:29:52.383Z,3.33
2018-10-21T15:32:20.265Z,4.27
2018-10-21T15:34:48.384Z,6.90
2018-10-21T15:37:16.356Z,3.87
2018-10-21T15:39:44.354Z,3.83
2018-10-21T15:42:12.192Z,5.23
2018-10-21T15:44:40.239Z,4.37
2018-10-21T15:47:08.232Z,10.23
2018-10-21T15:49:36.180Z,3.40
2018-10-21T15:52:04.070Z,6.53
2018-10-21T15:54:32.736Z,2.87
2018-10-21T15:57:00.724Z,7.50
2018-10-21T15:59:28.955Z,5.20
2018-10-21T16:01:56.870Z,4.20
2018-10-21T16:04:24.768Z,4.67
2018-10-21T16:06:52.671Z,3.60
2018-10-21T16:09:20.671Z,4.20
2018-10-21T16:11:48.577Z,4.13
2018-10-21T16:14:16.555Z,3.43
2018-10-21T16:16:44.492Z,4.03
2018-10-21T16:19:12.459Z,4.37
2018-10-21T16:21:40.424Z,3.00
2018-10-21T16:24:08.387Z,4.60
2018-10-21T16:26:36.564Z,2.73
2018-10-21T16:29:04.643Z,2.43
2018-10-21T16:31:32.627Z,4.60
2018-10-21T16:34:00.545Z,4.07
2018-10-21T16:36:28.051Z,3.87
2018-10-21T16:38:56.021Z,15.37
2018-10-21T16:41:27.212Z,34.57
2018-10-21T16:43:55.248Z,6.10
2018-10-21T16:46:23.319Z,3.87
2018-10-21T16:48:51.365Z,4.27
2018-10-21T16:51:19.360Z,4.20
2018-10-21T16:53:47.304Z,4.60
2018-10-21T16:56:15.284Z,4.97
2018-10-21T16:58:43.243Z,6.60
2018-10-21T17:01:11.171Z,3.93
2018-10-21T17:03:39.118Z,2.90
2018-10-21T17:06:07.053Z,5.43
2018-10-21T17:08:35.248Z,3.23
2018-10-21T17:11:03.490Z,3.73
2018-10-21T17:13:31.368Z,5.20
2018-10-21T17:15:59.370Z,2.50
2018-10-21T17:18:27.281Z,5.80
2018-10-21T17:20:55.251Z,4.33
2018-10-21T17:23:23.144Z,3.87
2018-10-21T17:25:51.056Z,4.20
2018-10-21T17:28:19.033Z,7.00
2018-10-21T17:30:46.924Z,3.40
2018-10-21T17:33:14.382Z,3.60
2018-10-21T17:35:42.351Z,3.60
2018-10-21T17:38:10.334Z,6.70
2018-10-21T17:40:38.317Z,5.93
2018-10-21T17:43:06.210Z,5.77
2018-10-21T17:45:34.168Z,7.30
2018-10-21T17:48:02.075Z,11.30
2018-10-21T17:50:30.373Z,4.90
2018-10-21T17:52:58.371Z,5.37
2018-10-21T17:55:26.313Z,9.73
2018-10-21T17:57:54.266Z,56.20
2018-10-21T18:00:22.180Z,17.53
2018-10-21T18:02:50.086Z,7.20
2018-10-21T18:05:17.999Z,6.10
2018-10-21T18:07:46.060Z,7.20
2018-10-21T18:10:14.125Z,5.03
2018-10-21T18:12:41.992Z,8.67
2018-10-21T18:15:10.741Z,4.90
2018-10-21T18:17:39.626Z,5.13
2018-10-21T18:20:07.955Z,13.00
2018-10-21T18:22:35.847Z,8.30
2018-10-21T18:25:03.824Z,4.20
2018-10-21T18:27:31.867Z,5.53
2018-10-21T18:29:59.756Z,5.57
2018-10-21T18:32:27.216Z,11.07
2018-10-21T18:34:55.187Z,6.07
2018-10-21T18:37:23.113Z,4.37
2018-10-21T18:39:51.252Z,11.30
2018-10-21T18:42:19.219Z,8.30
2018-10-21T18:44:47.171Z,5.37
2018-10-21T18:47:15.083Z,3.77
2018-10-21T18:49:42.987Z,4.10
2018-10-21T18:52:11.085Z,4.40
2018-10-21T18:54:38.963Z,3.87
2018-10-21T18:57:06.904Z,7.00
2018-10-21T18:59:34.816Z,7.87
2018-10-21T19:02:02.744Z,7.27
2018-10-21T19:04:30.712Z,18.53
2018-10-21T19:06:58.710Z,41.93
2018-10-21T19:09:26.709Z,13.27
2018-10-21T19:11:54.616Z,6.77
2018-10-21T19:14:22.531Z,5.00
2018-10-21T19:16:50.455Z,4.60
2018-10-21T19:19:18.471Z,4.80
2018-10-21T19:21:46.300Z,4.63
2018-10-21T19:24:14.217Z,9.90
2018-10-21T19:26:42.128Z,3.90
2018-10-21T19:29:10.048Z,7.73
2018-10-21T19:31:37.965Z,4.50
2018-10-21T19:34:06.032Z,7.80
2018-10-21T19:36:34.007Z,5.53
2018-10-21T19:39:01.929Z,14.77
2018-10-21T19:41:29.852Z,17.83
2018-10-21T19:43:57.768Z,9.60
2018-10-21T19:46:25.672Z,8.57
2018-10-21T19:48:53.584Z,7.00
2018-10-21T19:51:21.496Z,9.10
2018-10-21T19:53:49.507Z,4.80
2018-10-21T19:56:17.515Z,6.80
2018-10-21T19:58:45.427Z,5.57
2018-10-21T20:01:13.721Z,6.70
2018-10-21T20:03:41.545Z,5.93
2018-10-21T20:06:09.468Z,11.20
2018-10-21T20:08:37.407Z,6.37
2018-10-21T20:11:05.591Z,4.20
2018-10-21T20:13:33.562Z,6.60
2018-10-21T20:16:01.502Z,5.97
2018-10-21T20:18:29.504Z,5.50
2018-10-21T20:20:57.472Z,6.97
2018-10-21T20:23:25.388Z,4.97
2018-10-21T20:25:53.414Z,9.70
2018-10-21T20:28:21.328Z,4.47
2018-10-21T20:30:49.504Z,7.33
2018-10-21T20:33:18.494Z,12.23
2018-10-21T20:35:46.348Z,6.43
2018-10-21T20:38:14.275Z,5.60
2018-10-21T20:40:42.187Z,4.03
2018-10-21T20:43:10.100Z,5.40
2018-10-21T20:45:38.024Z,8.73
2018-10-21T20:48:06.035Z,7.77
2018-10-21T20:50:33.995Z,5.60
2018-10-21T20:53:01.960Z,4.80
2018-10-21T20:55:29.963Z,5.67
2018-10-21T20:57:57.973Z,8.30
2018-10-21T21:00:25.854Z,8.30
2018-10-21T21:02:53.867Z,8.17
2018-10-21T21:05:31.614Z,5.60
2018-10-21T21:08:07.901Z,10.07
2018-10-21T21:11:07.456Z,7.90
2018-10-21T21:16:23.127Z,5.80
2018-10-21T21:30:22.903Z,6.97
2018-10-21T21:36:02.273Z,7.60
2018-10-21T21:38:38.872Z,8.73
2018-10-21T21:41:11.922Z,15.60
2018-10-21T21:54:52.582Z,11.50
2018-10-21T21:57:30.989Z,5.10
2018-10-21T22:00:02.805Z,3.57
2018-10-21T22:02:38.039Z,5.87
2018-10-21T22:05:11.420Z,8.07
2018-10-21T22:07:56.059Z,5.23
2018-10-21T22:10:24.111Z,6.17
2018-10-21T22:13:00.497Z,7.43
2018-10-21T22:15:31.622Z,7.43
2018-10-21T22:18:04.068Z,7.77
2018-10-21T22:20:40.535Z,8.73
2018-10-21T22:23:12.132Z,4.80
2018-10-21T22:25:43.520Z,5.50
2018-10-21T22:28:13.670Z,5.57
2018-10-21T22:30:52.146Z,8.80
2018-10-21T22:33:21.048Z,6.90
2018-10-21T22:35:50.302Z,4.23
2018-10-21T22:38:18.417Z,6.60
2018-10-21T22:40:46.317Z,9.77
2018-10-21T22:43:14.445Z,5.30
